createdAt,value
2022-11-13T00:00:47.713Z,0.93
2022-11-13T00:03:18.041Z,0.52
2022-11-13T00:05:48.379Z,0.75
2022-11-13T00:08:31.031Z,0.70
2022-11-13T00:11:12.416Z,0.70
2022-11-13T00:13:44.975Z,1.00
2022-11-13T00:16:19.247Z,0.82
2022-11-13T00:18:50.196Z,1.10
2022-11-13T00:21:24.546Z,0.80
2022-11-13T00:23:55.583Z,0.85
2022-11-13T00:26:29.341Z,0.50
2022-11-13T00:29:04.404Z,0.75
2022-11-13T00:31:34.836Z,0.70
2022-11-13T00:39:33.497Z,0.30
2022-11-13T00:42:03.724Z,0.60
2022-11-13T00:44:34.335Z,0.40
2022-11-13T00:47:04.617Z,0.40
2022-11-13T00:49:35.239Z,0.60
2022-11-13T00:52:05.929Z,1.38
2022-11-13T00:54:36.208Z,0.47
2022-11-13T00:57:06.447Z,0.30
2022-11-13T00:59:36.852Z,0.40
2022-11-13T01:02:07.071Z,0.30
2022-11-13T01:04:37.686Z,0.30
2022-11-13T01:07:10.445Z,0.50
2022-11-13T01:09:41.221Z,0.38
2022-11-13T01:12:11.519Z,0.45
2022-11-13T01:14:42.211Z,0.40
2022-11-13T01:17:12.824Z,0.45
2022-11-13T01:19:43.014Z,0.30
2022-11-13T01:22:13.233Z,0.30
2022-11-13T01:24:43.777Z,0.70
2022-11-13T01:27:14.946Z,0.50
2022-11-13T01:29:46.046Z,0.28
2022-11-13T01:32:17.826Z,0.22
2022-11-13T01:34:49.909Z,0.50
2022-11-13T01:37:21.113Z,0.60
2022-11-13T01:39:51.825Z,0.47
2022-11-13T01:42:22.084Z,0.38
2022-11-13T01:45:06.433Z,0.43
2022-11-13T01:47:36.732Z,0.40
2022-11-13T01:50:07.902Z,0.45
2022-11-13T01:52:44.760Z,0.30
2022-11-13T01:55:20.313Z,0.30
2022-11-13T01:57:50.697Z,0.20
2022-11-13T02:00:22.387Z,0.35
2022-11-13T02:02:52.565Z,0.30
2022-11-13T02:05:22.969Z,0.47
2022-11-13T02:07:53.608Z,0.40
2022-11-13T02:10:23.921Z,0.30
2022-11-13T02:12:55.198Z,0.30
2022-11-13T02:15:29.786Z,0.30
2022-11-13T02:18:02.752Z,0.30
2022-11-13T02:20:48.533Z,0.40
2022-11-13T02:23:24.690Z,0.47
2022-11-13T02:25:57.413Z,0.32
2022-11-13T02:28:28.197Z,0.75
2022-11-13T02:30:59.338Z,0.40
2022-11-13T02:33:33.749Z,0.50
2022-11-13T02:36:05.233Z,0.60
2022-11-13T02:38:37.135Z,0.40
2022-11-13T02:41:07.462Z,0.50
2022-11-13T02:43:37.742Z,0.60
2022-11-13T02:46:08.247Z,0.40
2022-11-13T02:48:38.473Z,0.45
2022-11-13T02:51:08.793Z,0.40
2022-11-13T02:53:39.456Z,0.70
2022-11-13T02:56:10.167Z,0.30
2022-11-13T02:58:42.228Z,0.40
2022-11-13T03:01:12.992Z,0.30
2022-11-13T03:03:58.759Z,0.40
2022-11-13T03:06:29.135Z,0.40
2022-11-13T03:08:59.447Z,0.40
2022-11-13T03:11:30.223Z,0.50
2022-11-13T03:14:01.816Z,0.60
2022-11-13T03:16:32.499Z,0.43
2022-11-13T03:19:03.211Z,0.55
2022-11-13T03:21:35.411Z,0.40
2022-11-13T03:24:05.746Z,0.30
2022-11-13T03:26:37.242Z,0.45
2022-11-13T03:29:07.567Z,0.60
2022-11-13T03:31:38.455Z,0.40
2022-11-13T03:34:08.624Z,0.40
2022-11-13T03:36:38.863Z,0.35
2022-11-13T03:39:09.115Z,0.50
2022-11-13T03:41:39.506Z,0.65
2022-11-13T03:44:09.815Z,0.40
2022-11-13T03:46:40.047Z,0.85
2022-11-13T03:49:10.237Z,0.40
2022-11-13T03:51:40.642Z,0.40
2022-11-13T03:54:11.252Z,0.40
2022-11-13T03:56:41.909Z,0.55
2022-11-13T03:59:12.793Z,0.40
2022-11-13T04:01:43.540Z,0.50
2022-11-13T04:04:13.874Z,0.55
2022-11-13T04:06:44.335Z,0.40
2022-11-13T04:09:15.842Z,0.50
2022-11-13T04:11:46.557Z,0.43
2022-11-13T04:14:17.267Z,0.50
2022-11-13T04:16:47.570Z,0.52
2022-11-13T04:19:18.209Z,0.80
2022-11-13T04:21:48.842Z,0.50
2022-11-13T04:24:19.014Z,0.50
2022-11-13T04:26:49.349Z,0.50
2022-11-13T04:29:19.715Z,0.80
2022-11-13T04:31:50.885Z,0.60
2022-11-13T04:34:21.049Z,0.50
2022-11-13T04:36:51.325Z,0.60
2022-11-13T04:39:21.561Z,0.50
2022-11-13T04:42:09.685Z,0.50
2022-11-13T04:44:40.318Z,0.55
2022-11-13T04:47:11.523Z,0.80
2022-11-13T04:49:42.221Z,0.73
2022-11-13T04:52:13.412Z,0.70
2022-11-13T04:54:44.386Z,0.85
2022-11-13T04:57:14.663Z,0.68
2022-11-13T04:59:45.265Z,0.77
2022-11-13T05:02:17.510Z,0.65
2022-11-13T05:04:48.353Z,1.17
2022-11-13T05:07:20.830Z,1.40
2022-11-13T05:09:52.559Z,0.90
2022-11-13T05:12:23.965Z,1.02
2022-11-13T05:14:55.570Z,1.05
2022-11-13T05:17:26.473Z,1.00
2022-11-13T05:19:57.175Z,1.17
2022-11-13T05:22:27.863Z,0.65
2022-11-13T05:24:58.045Z,0.90
2022-11-13T05:27:28.507Z,0.75
2022-11-13T05:29:59.284Z,0.85
2022-11-13T05:32:29.899Z,0.60
2022-11-13T05:35:01.437Z,0.90
2022-11-13T05:37:32.583Z,0.50
2022-11-13T05:40:03.153Z,0.80
2022-11-13T05:42:33.701Z,0.60
2022-11-13T05:45:04.065Z,0.80
2022-11-13T05:47:36.514Z,0.77
2022-11-13T05:50:07.712Z,0.70
2022-11-13T05:52:38.749Z,0.60
2022-11-13T05:55:10.068Z,0.80
2022-11-13T05:57:40.986Z,1.13
2022-11-13T06:00:12.930Z,0.93
2022-11-13T06:02:44.651Z,0.82
2022-11-13T06:05:15.381Z,0.70
2022-11-13T06:07:45.871Z,0.57
2022-11-13T06:10:16.037Z,0.88
2022-11-13T06:12:46.344Z,0.80
2022-11-13T06:15:16.561Z,1.67
2022-11-13T06:17:50.017Z,0.98
2022-11-13T06:20:20.341Z,1.30
2022-11-13T06:22:51.004Z,0.70
2022-11-13T06:25:22.572Z,0.93
2022-11-13T06:27:53.403Z,1.10
2022-11-13T06:30:24.921Z,0.82
2022-11-13T06:32:56.163Z,0.88
2022-11-13T06:35:26.811Z,0.90
2022-11-13T06:38:00.456Z,0.85
2022-11-13T06:40:31.325Z,0.70
2022-11-13T06:43:02.428Z,1.00
2022-11-13T06:45:32.766Z,0.85
2022-11-13T06:48:02.980Z,0.80
2022-11-13T06:50:33.657Z,0.50
2022-11-13T06:53:05.250Z,0.52
2022-11-13T06:55:36.072Z,0.60
2022-11-13T06:58:06.341Z,1.58
2022-11-13T07:00:39.780Z,0.85
2022-11-13T07:03:21.895Z,0.45
2022-11-13T07:05:53.195Z,1.27
2022-11-13T07:08:32.857Z,0.80
2022-11-13T07:11:03.491Z,0.52
2022-11-13T07:13:34.218Z,0.65
2022-11-13T07:16:16.242Z,0.80
2022-11-13T07:18:55.120Z,0.60
2022-11-13T07:21:27.379Z,0.77
2022-11-13T07:23:58.526Z,0.70
2022-11-13T07:26:30.301Z,0.63
2022-11-13T07:29:00.939Z,0.80
2022-11-13T07:31:31.590Z,0.90
2022-11-13T07:34:01.748Z,1.10
2022-11-13T07:36:32.458Z,0.80
2022-11-13T07:39:03.051Z,1.30
2022-11-13T07:41:33.393Z,0.93
2022-11-13T07:44:08.804Z,0.73
2022-11-13T07:46:40.093Z,1.45
2022-11-13T07:49:10.706Z,1.00
2022-11-13T07:51:40.892Z,1.00
2022-11-13T07:54:11.279Z,0.80
2022-11-13T07:56:41.570Z,0.60
2022-11-13T07:59:11.795Z,0.57
2022-11-13T08:01:42.024Z,0.30
2022-11-13T08:04:12.556Z,0.30
2022-11-13T08:06:42.791Z,0.57
2022-11-13T08:09:13.019Z,0.40
2022-11-13T08:11:44.684Z,0.50
2022-11-13T08:14:15.494Z,0.40
2022-11-13T08:16:46.760Z,0.30
2022-11-13T08:19:22.220Z,0.40
2022-11-13T08:21:54.116Z,0.30
2022-11-13T08:24:28.916Z,0.40
2022-11-13T08:27:00.553Z,0.50
2022-11-13T08:29:31.711Z,0.35
2022-11-13T08:32:04.170Z,0.20
2022-11-13T08:34:35.133Z,0.30
2022-11-13T08:37:05.945Z,0.20
2022-11-13T08:39:37.283Z,0.30
2022-11-13T08:42:08.716Z,0.70
2022-11-13T08:44:39.705Z,0.45
2022-11-13T08:47:10.639Z,0.30
2022-11-13T08:49:41.074Z,0.30
2022-11-13T08:52:11.351Z,0.30
2022-11-13T08:54:41.688Z,0.30
2022-11-13T08:57:12.357Z,0.30
2022-11-13T08:59:42.764Z,0.28
2022-11-13T09:02:17.690Z,0.28
2022-11-13T09:04:47.996Z,0.50
2022-11-13T09:07:22.061Z,0.30
2022-11-13T09:09:55.878Z,0.40
2022-11-13T09:12:26.947Z,0.20
2022-11-13T09:14:58.492Z,0.30
2022-11-13T09:17:30.190Z,0.20
2022-11-13T09:20:04.350Z,0.63
2022-11-13T09:22:37.938Z,0.30
2022-11-13T09:25:09.243Z,0.30
2022-11-13T09:27:40.861Z,0.43
2022-11-13T09:30:11.877Z,0.40
2022-11-13T09:32:42.807Z,0.47
2022-11-13T09:35:14.295Z,0.40
2022-11-13T09:37:45.597Z,0.30
2022-11-13T09:40:30.156Z,0.40
2022-11-13T09:43:03.440Z,0.30
2022-11-13T09:45:36.156Z,0.35
2022-11-13T09:48:31.832Z,0.65
2022-11-13T09:51:10.847Z,0.20
2022-11-13T09:53:43.151Z,0.35
2022-11-13T09:56:31.068Z,0.20
2022-11-13T09:59:18.462Z,0.30
2022-11-13T10:02:06.754Z,0.20
2022-11-13T10:05:15.454Z,0.40
2022-11-13T10:08:16.404Z,0.30
2022-11-13T10:10:59.147Z,0.40
2022-11-13T10:13:52.149Z,0.60
2022-11-13T10:16:44.576Z,0.20
2022-11-13T10:19:21.381Z,0.20
2022-11-13T10:22:32.347Z,0.32
2022-11-13T10:25:13.753Z,0.20
2022-11-13T10:27:44.872Z,0.20
2022-11-13T10:30:19.277Z,0.17
2022-11-13T10:32:50.235Z,0.15
2022-11-13T10:35:43.751Z,0.30
2022-11-13T10:38:45.175Z,0.20
2022-11-13T10:41:18.513Z,0.25
2022-11-13T10:44:22.062Z,0.30
2022-11-13T10:47:06.508Z,0.20
2022-11-13T10:49:37.228Z,0.30
2022-11-13T10:52:18.234Z,0.20
2022-11-13T10:54:52.121Z,0.30
2022-11-13T10:57:37.686Z,0.20
2022-11-13T11:00:41.238Z,0.43
2022-11-13T11:03:20.451Z,0.50
2022-11-13T11:06:04.901Z,0.35
2022-11-13T11:08:39.428Z,0.32
2022-11-13T11:15:05.405Z,0.20
2022-11-13T11:17:45.607Z,0.10
2022-11-13T11:20:58.899Z,0.10
2022-11-13T11:23:43.772Z,0.20
2022-11-13T11:26:43.868Z,0.10
2022-11-13T11:30:06.706Z,0.30
2022-11-13T11:32:57.677Z,0.10
2022-11-13T11:35:40.984Z,0.10
2022-11-13T11:41:21.752Z,0.10
2022-11-13T11:44:17.768Z,0.10
2022-11-13T11:46:48.157Z,0.17
2022-11-13T11:49:18.721Z,0.20
2022-11-13T11:52:25.840Z,0.20
2022-11-13T11:55:16.256Z,0.30
2022-11-13T11:58:18.269Z,0.20
2022-11-13T12:01:12.912Z,0.20
2022-11-13T12:03:47.610Z,0.20
2022-11-13T12:06:43.350Z,0.20
2022-11-13T12:09:38.112Z,0.20
2022-11-13T12:12:43.620Z,0.20
2022-11-13T12:15:28.323Z,0.20
2022-11-13T12:18:20.102Z,0.25
2022-11-13T12:21:02.442Z,0.75
2022-11-13T12:24:00.139Z,0.20
2022-11-13T12:26:33.859Z,0.30
2022-11-13T12:29:23.328Z,0.20
2022-11-13T12:32:04.829Z,0.10
2022-11-13T12:34:39.776Z,0.20
2022-11-13T12:37:17.967Z,0.10
2022-11-13T12:39:59.637Z,0.20
2022-11-13T12:42:48.309Z,0.40
2022-11-13T12:45:39.727Z,0.10
2022-11-13T12:48:17.609Z,0.10
2022-11-13T12:51:07.489Z,0.20
2022-11-13T12:53:54.714Z,0.10
2022-11-13T13:02:11.119Z,0.20
2022-11-13T13:05:11.125Z,0.82
2022-11-13T13:08:10.462Z,0.05
2022-11-13T13:11:02.096Z,0.30
2022-11-13T13:13:41.612Z,0.20
2022-11-13T13:16:12.536Z,0.20
2022-11-13T13:18:43.280Z,0.25
2022-11-13T13:21:14.554Z,0.20
2022-11-13T13:23:52.744Z,0.40
2022-11-13T13:26:30.094Z,0.20
2022-11-13T13:29:21.449Z,0.30
2022-11-13T13:32:35.715Z,0.20
2022-11-13T13:35:21.548Z,0.20
2022-11-13T13:38:01.349Z,0.25
2022-11-13T13:41:01.194Z,0.30
2022-11-13T13:44:18.042Z,0.88
2022-11-13T13:46:48.727Z,0.20
2022-11-13T13:49:24.388Z,0.30
2022-11-13T13:52:00.499Z,0.30
2022-11-13T13:54:35.387Z,0.40
2022-11-13T13:57:08.009Z,0.30
2022-11-13T13:59:40.224Z,0.60
2022-11-13T14:02:25.878Z,0.30
2022-11-13T14:04:58.043Z,0.30
2022-11-13T14:07:35.718Z,0.30
2022-11-13T14:10:21.055Z,0.30
2022-11-13T14:12:51.805Z,0.30
2022-11-13T14:15:27.625Z,0.25
2022-11-13T14:18:20.162Z,0.57
2022-11-13T14:20:55.474Z,0.52
2022-11-13T14:23:33.279Z,0.30
2022-11-13T14:26:04.786Z,0.40
2022-11-13T14:28:37.629Z,0.43
2022-11-13T14:31:10.459Z,0.20
2022-11-13T14:33:54.805Z,0.20
2022-11-13T14:36:33.502Z,0.30
2022-11-13T14:39:06.120Z,0.20
2022-11-13T14:41:45.399Z,0.50
2022-11-13T14:44:16.108Z,0.30
2022-11-13T14:46:46.904Z,0.38
2022-11-13T14:49:32.455Z,0.40
2022-11-13T14:52:03.796Z,0.47
2022-11-13T14:55:12.921Z,0.35
2022-11-13T15:00:21.408Z,0.40
2022-11-13T15:02:51.549Z,0.32
2022-11-13T15:05:22.311Z,0.30
2022-11-13T15:07:54.819Z,0.50
2022-11-13T15:10:30.170Z,0.35
2022-11-13T15:13:00.964Z,0.65
2022-11-13T15:15:32.656Z,0.40
2022-11-13T15:18:06.192Z,0.40
2022-11-13T15:20:37.715Z,0.50
2022-11-13T15:23:11.573Z,0.40
2022-11-13T15:25:41.830Z,0.40
2022-11-13T15:28:12.259Z,0.50
2022-11-13T15:30:42.471Z,0.40
2022-11-13T15:33:18.336Z,0.40
2022-11-13T15:35:50.459Z,0.50
2022-11-13T15:38:30.309Z,0.30
2022-11-13T15:41:01.139Z,0.45
2022-11-13T15:43:31.839Z,0.28
2022-11-13T15:46:03.067Z,0.22
2022-11-13T15:48:33.379Z,0.50
2022-11-13T15:51:03.668Z,0.40
2022-11-13T15:53:34.164Z,0.30
2022-11-13T15:56:07.239Z,0.30
2022-11-13T15:58:37.915Z,0.57
2022-11-13T16:01:08.710Z,0.20
2022-11-13T16:03:41.749Z,0.28
2022-11-13T16:06:17.899Z,0.30
2022-11-13T16:08:49.799Z,0.52
2022-11-13T16:11:23.922Z,0.10
2022-11-13T16:13:54.255Z,0.20
2022-11-13T16:16:27.804Z,0.00
2022-11-13T16:19:00.348Z,0.05
2022-11-13T16:21:31.592Z,0.13
2022-11-13T16:24:01.834Z,0.00
2022-11-13T16:26:33.101Z,0.00
2022-11-13T16:29:18.972Z,0.00
2022-11-13T16:31:49.407Z,0.10
2022-11-13T16:34:19.616Z,0.20
2022-11-13T16:36:50.360Z,0.00
2022-11-13T16:39:20.569Z,0.00
2022-11-13T16:41:50.874Z,0.00
2022-11-13T16:44:21.112Z,0.00
2022-11-13T16:46:51.849Z,0.00
2022-11-13T16:49:22.117Z,0.00
2022-11-13T16:51:54.113Z,0.00
2022-11-13T16:54:24.393Z,0.00
2022-11-13T16:56:54.581Z,0.00
2022-11-13T16:59:24.988Z,0.00
2022-11-13T17:01:58.600Z,0.30
2022-11-13T17:04:28.739Z,0.00
2022-11-13T17:06:59.399Z,0.00
2022-11-13T17:09:31.406Z,0.00
2022-11-13T17:12:02.775Z,0.00
2022-11-13T17:14:33.476Z,0.10
2022-11-13T17:17:05.681Z,0.10
2022-11-13T17:19:36.844Z,0.00
2022-11-13T17:22:07.779Z,0.30
2022-11-13T17:24:38.646Z,0.10
2022-11-13T17:27:11.915Z,0.00
2022-11-13T17:29:43.646Z,0.25
2022-11-13T17:32:14.399Z,0.10
2022-11-13T17:34:46.674Z,0.00
2022-11-13T17:37:17.955Z,0.00
2022-11-13T17:39:48.318Z,0.00
2022-11-13T17:42:18.929Z,0.20
2022-11-13T17:44:49.140Z,0.00
2022-11-13T17:47:19.419Z,0.00
2022-11-13T17:49:49.718Z,0.10
2022-11-13T17:52:20.174Z,0.00
2022-11-13T17:54:50.411Z,0.00
2022-11-13T17:57:24.178Z,0.00
2022-11-13T17:59:57.005Z,0.00
2022-11-13T18:02:27.902Z,0.00
2022-11-13T18:05:01.319Z,0.10
2022-11-13T18:07:33.092Z,0.00
2022-11-13T18:10:03.675Z,0.10
2022-11-13T18:12:35.658Z,0.05
2022-11-13T18:15:06.685Z,0.00
2022-11-13T18:17:37.428Z,0.68
2022-11-13T18:20:08.189Z,0.10
2022-11-13T18:22:38.518Z,0.20
2022-11-13T18:25:09.573Z,0.10
2022-11-13T18:27:41.760Z,0.00
2022-11-13T18:32:56.499Z,0.10
2022-11-13T18:35:26.645Z,0.00
2022-11-13T18:37:58.280Z,0.08
2022-11-13T18:40:28.531Z,0.00
2022-11-13T18:42:58.972Z,0.17
2022-11-13T18:45:29.288Z,0.00
2022-11-13T18:47:59.811Z,0.00
2022-11-13T18:50:30.156Z,0.00
2022-11-13T18:53:01.061Z,0.03
2022-11-13T18:55:31.695Z,0.10
2022-11-13T18:58:02.373Z,0.00
2022-11-13T19:00:32.617Z,0.10
2022-11-13T19:03:03.010Z,0.05
2022-11-13T19:05:33.301Z,0.00
2022-11-13T19:08:03.604Z,0.20
2022-11-13T19:10:35.850Z,0.10
2022-11-13T19:13:06.114Z,0.00
2022-11-13T19:15:39.459Z,0.10
2022-11-13T19:18:10.432Z,0.10
2022-11-13T19:20:43.060Z,0.10
2022-11-13T19:23:14.061Z,0.00
2022-11-13T19:25:44.846Z,0.05
2022-11-13T19:28:15.249Z,0.10
2022-11-13T19:30:50.117Z,0.10
2022-11-13T19:33:21.787Z,0.17
2022-11-13T19:35:53.998Z,0.20
2022-11-13T19:38:29.538Z,0.10
2022-11-13T19:40:59.981Z,0.10
2022-11-13T19:43:30.218Z,0.20
2022-11-13T19:46:00.464Z,0.10
2022-11-13T19:48:31.026Z,0.10
2022-11-13T19:51:11.794Z,0.20
2022-11-13T19:53:48.508Z,0.20
2022-11-13T19:56:23.659Z,0.32
2022-11-13T19:58:55.334Z,0.20
2022-11-13T20:01:30.845Z,0.75
2022-11-13T20:04:03.914Z,0.20
2022-11-13T20:06:38.713Z,0.10
2022-11-13T20:09:10.722Z,0.20
2022-11-13T20:11:41.431Z,0.20
2022-11-13T20:14:16.417Z,0.30
2022-11-13T20:16:47.214Z,0.10
2022-11-13T20:19:18.244Z,0.20
2022-11-13T20:21:49.139Z,0.20
2022-11-13T20:24:21.158Z,0.38
2022-11-13T20:26:53.917Z,0.10
2022-11-13T20:29:24.292Z,0.20
2022-11-13T20:31:54.892Z,0.20
2022-11-13T20:34:25.682Z,0.17
2022-11-13T20:36:56.898Z,0.20
2022-11-13T20:39:29.508Z,0.20
2022-11-13T20:42:01.224Z,0.20
2022-11-13T20:44:32.029Z,0.13
2022-11-13T20:47:03.207Z,0.30
2022-11-13T20:49:34.374Z,0.20
2022-11-13T20:52:06.737Z,0.10
2022-11-13T20:54:37.132Z,0.20
2022-11-13T20:57:08.726Z,0.30
2022-11-13T20:59:40.664Z,0.20
2022-11-13T21:02:13.074Z,0.20
2022-11-13T21:04:43.544Z,0.10
2022-11-13T21:07:13.786Z,0.20
2022-11-13T21:09:48.721Z,0.10
2022-11-13T21:12:21.966Z,0.60
2022-11-13T21:14:54.133Z,0.40
2022-11-13T21:17:24.362Z,0.20
2022-11-13T21:19:57.717Z,0.10
2022-11-13T21:22:28.121Z,0.20
2022-11-13T21:24:58.773Z,0.20
2022-11-13T21:27:28.962Z,0.38
2022-11-13T21:30:00.957Z,0.20
2022-11-13T21:32:34.599Z,0.20
2022-11-13T21:35:11.163Z,0.20
2022-11-13T21:40:19.124Z,0.10
2022-11-13T21:42:49.728Z,0.20
2022-11-13T21:45:20.483Z,0.20
2022-11-13T21:47:52.193Z,0.30
2022-11-13T21:50:23.282Z,0.20
2022-11-13T21:52:55.110Z,0.20
2022-11-13T21:55:26.077Z,0.30
2022-11-13T21:57:56.736Z,0.30
2022-11-13T22:00:27.276Z,0.30
2022-11-13T22:02:57.495Z,0.28
2022-11-13T22:05:27.936Z,0.90
2022-11-13T22:07:58.195Z,0.30
2022-11-13T22:10:29.677Z,0.30
2022-11-13T22:12:59.971Z,2.30
2022-11-13T22:15:30.243Z,0.90
2022-11-13T22:18:00.552Z,0.82
2022-11-13T22:20:37.187Z,0.20
2022-11-13T22:23:08.832Z,0.30
2022-11-13T22:25:40.312Z,0.40
2022-11-13T22:28:11.798Z,0.80
2022-11-13T22:30:42.532Z,0.10
2022-11-13T22:33:13.478Z,0.47
2022-11-13T22:35:44.114Z,0.20
2022-11-13T22:38:15.718Z,0.20
2022-11-13T22:40:46.577Z,0.20
2022-11-13T22:43:17.500Z,0.32
2022-11-13T22:45:49.125Z,0.20
2022-11-13T22:48:20.313Z,0.20
2022-11-13T22:50:50.462Z,0.10
2022-11-13T22:53:20.713Z,0.93
2022-11-13T22:55:50.941Z,0.20
2022-11-13T22:58:21.179Z,0.22
2022-11-13T23:00:51.377Z,0.45
2022-11-13T23:03:21.622Z,0.93
2022-11-13T23:05:51.940Z,0.38
2022-11-13T23:08:28.272Z,0.30
2022-11-13T23:11:00.101Z,0.22
2022-11-13T23:13:30.931Z,0.43
2022-11-13T23:16:02.640Z,0.20
2022-11-13T23:18:34.818Z,0.20
2022-11-13T23:21:05.509Z,0.10
2022-11-13T23:23:38.238Z,0.30
2022-11-13T23:26:10.678Z,0.30
2022-11-13T23:28:41.908Z,0.20
2022-11-13T23:31:14.622Z,0.55
2022-11-13T23:33:47.230Z,0.15
2022-11-13T23:36:20.090Z,0.20
2022-11-13T23:38:50.984Z,0.20
2022-11-13T23:41:23.348Z,0.30
2022-11-13T23:44:08.197Z,0.20
2022-11-13T23:46:41.123Z,0.20
2022-11-13T23:49:12.998Z,0.30
2022-11-13T23:51:44.515Z,0.52
2022-11-13T23:54:17.052Z,0.70
2022-11-13T23:56:47.728Z,0.17
2022-11-13T23:59:17.965Z,0.40
